< < Back
Terminal Aerodrome Forecast


Current Version              Previous Versions:   1  2  3  4  5  6  7  8  9  

Terminal Aerodrome Forecast

783
FTUS44 KBMX 241700
TAFANB
TAF
KANB 241721Z 2418/2518 34006KT P6SM SKC
     FM250100 00000KT P6SM SKC=



Latest METAR

584
SAUS70 KWBC 242300 RRE
MTRANB
METAR KANB 242253Z AUTO 30004KT 10SM CLR 21/05 A3003 RMK AO2 SLP167
T02060050


USA.gov is the U.S. government's official web portal to all federal, state and local government web resources and services.